Time;durP1;ratioP1;P1;durP2;ratioP2;P2;SDS_P1;SDS_P2;PMS_P1;PMS_P2;Temp;Humidity;BMP_temperature;BMP_pressure;BME280_temperature;BME280_humidity;BME280_pressure;Samples;Min_cycle;Max_cycle;Signal;HPM_P1;HPM_P2
2021/09/03 00:01:34;;;;;;;15.93;10.32;;;16.30;90.70;;;;;;4877916;29;20045;-88
2021/09/03 00:04:10;;;;;;;19.15;10.55;;;16.30;90.70;;;;;;4886829;29;20029;-88
2021/09/03 00:06:57;;;;;;;;;;;;;;;;;;;;;
2021/09/03 00:09:51;;;;;;;14.77;11.00;;;16.30;90.90;;;;;;4905502;29;20037;-88
2021/09/03 00:12:30;;;;;;;;;;;;;;;;;;;;;
2021/09/03 00:15:37;;;;;;;14.90;10.93;;;16.30;90.90;;;;;;4890164;29;20037;-88
2021/09/03 00:18:17;;;;;;;14.70;10.43;;;16.20;91.00;;;;;;4894335;29;20505;-87
2021/09/03 00:21:13;;;;;;;;;;;;;;;;;;;;;
2021/09/03 00:24:19;;;;;;;15.55;10.70;;;16.20;91.00;;;;;;4897091;29;20426;-87
2021/09/03 00:27:05;;;;;;;14.52;9.57;;;16.20;91.00;;;;;;4896145;29;20496;-87
2021/09/03 00:29:46;;;;;;;;;;;;;;;;;;;;;
2021/09/03 00:32:32;;;;;;;;;;;16.20;91.10;;;;;;4896988;29;20040;-88
2021/09/03 00:35:11;;;;;;;;;;;;;;;;;;;;;
2021/09/03 00:37:57;;;;;;;;;;;;;;;;;;;;;
2021/09/03 00:40:33;;;;;;;15.68;10.93;;;16.10;91.20;;;;;;4926484;29;20035;-88
2021/09/03 00:43:22;;;;;;;;;;;;;;;;;;;;;
2021/09/03 00:46:13;;;;;;;14.43;10.48;;;16.10;91.20;;;;;;4883103;29;20024;-87
2021/09/03 00:48:44;;;;;;;15.75;10.80;;;16.10;91.20;;;;;;4897680;29;20104;-88
2021/09/03 00:51:13;;;;;;;14.00;10.95;;;16.10;91.20;;;;;;4897434;29;20028;-87
2021/09/03 00:53:51;;;;;;;15.93;10.85;;;16.10;91.20;;;;;;4894691;29;20045;-88
2021/09/03 00:56:46;;;;;;;17.65;11.70;;;16.10;91.20;;;;;;4892424;29;20041;-88
2021/09/03 00:59:53;;;;;;;;;;;;;;;;;;;;;
2021/09/03 01:02:22;;;;;;;15.65;11.30;;;16.10;91.40;;;;;;4879210;29;20025;-87
2021/09/03 01:05:01;;;;;;;15.90;10.85;;;16.00;91.40;;;;;;4881970;29;20043;-87
2021/09/03 01:07:38;;;;;;;17.00;11.25;;;16.00;91.40;;;;;;4869189;29;20105;-87
2021/09/03 01:10:29;;;;;;;;;;;;;;;;;;;;;
2021/09/03 01:13:11;;;;;;;17.27;12.30;;;15.90;91.50;;;;;;4879409;29;20029;-88
2021/09/03 01:16:27;;;;;;;;;;;;;;;;;;;;;
2021/09/03 01:19:00;;;;;;;16.30;12.20;;;15.90;91.50;;;;;;4892892;29;20040;-88
2021/09/03 01:21:50;;;;;;;19.05;12.13;;;15.90;91.50;;;;;;4888828;29;20044;-88
2021/09/03 01:24:20;;;;;;;17.00;11.88;;;15.90;91.60;;;;;;4897813;29;20376;-88
2021/09/03 01:27:05;;;;;;;15.07;11.70;;;15.90;91.60;;;;;;4897397;29;20550;-88
2021/09/03 01:29:42;;;;;;;16.70;12.57;;;15.90;91.60;;;;;;4899472;29;20063;-87
2021/09/03 01:32:15;;;;;;;16.25;12.48;;;15.80;91.60;;;;;;4895960;29;20381;-88
2021/09/03 01:34:58;;;;;;;18.63;13.48;;;15.80;91.60;;;;;;4882305;29;20103;-87
2021/09/03 01:38:22;;;;;;;17.38;12.82;;;15.80;91.70;;;;;;4904209;29;20071;-88
2021/09/03 01:41:13;;;;;;;15.85;11.88;;;15.80;91.70;;;;;;4897684;29;20033;-87
2021/09/03 01:44:12;;;;;;;;;;;;;;;;;;;;;
2021/09/03 01:47:25;;;;;;;18.38;12.55;;;15.70;91.80;;;;;;4900304;29;20045;-88
2021/09/03 01:50:24;;;;;;;16.70;11.93;;;15.70;91.90;;;;;;4899490;29;20040;-86
2021/09/03 01:53:17;;;;;;;;;;;;;;;;;;;;;
2021/09/03 01:56:02;;;;;;;18.65;12.98;;;15.60;91.90;;;;;;4890561;29;20496;-87
2021/09/03 01:58:28;;;;;;;18.45;12.93;;;15.70;91.90;;;;;;4883582;29;20045;-87
2021/09/03 02:00:53;;;;;;;19.90;14.18;;;15.70;91.90;;;;;;4913983;29;20116;-86
2021/09/03 02:03:44;;;;;;;18.23;14.10;;;15.70;91.90;;;;;;4899535;29;20088;-87
2021/09/03 02:06:19;;;;;;;20.30;13.95;;;15.60;91.90;;;;;;4899561;29;20052;-87
2021/09/03 02:08:54;;;;;;;18.77;13.55;;;15.60;92.00;;;;;;4881383;29;20029;-87
2021/09/03 02:14:23;;;;;;;;;;;15.60;92.00;;;;;;4893875;29;20394;-87
2021/09/03 02:16:57;;;;;;;18.80;13.50;;;15.60;92.00;;;;;;4899673;29;19907;-87
2021/09/03 02:19:51;;;;;;;20.45;15.02;;;15.60;92.00;;;;;;4872653;29;20029;-87
2021/09/03 02:22:39;;;;;;;18.30;14.05;;;15.60;92.00;;;;;;4877721;29;20092;-87
2021/09/03 02:25:29;;;;;;;18.52;14.88;;;15.60;92.00;;;;;;4893539;29;20056;-87
2021/09/03 02:28:18;;;;;;;;;;;;;;;;;;;;;
2021/09/03 02:30:55;;;;;;;;;;;;;;;;;;;;;
2021/09/03 02:33:32;;;;;;;21.08;15.68;;;15.50;92.20;;;;;;4889767;29;20473;-88
2021/09/03 02:36:21;;;;;;;18.45;13.90;;;15.50;92.20;;;;;;4880368;29;20032;-87
2021/09/03 02:39:05;;;;;;;19.75;14.82;;;15.50;92.10;;;;;;4898638;29;20049;-87
2021/09/03 02:41:53;;;;;;;19.83;15.77;;;15.50;92.20;;;;;;4895873;29;20025;-87
2021/09/03 02:44:27;;;;;;;21.30;15.63;;;15.50;92.20;;;;;;4882053;29;20459;-87
2021/09/03 02:47:10;;;;;;;;;;;;;;;;;;;;;
2021/09/03 02:49:46;;;;;;;;;;;;;;;;;;;;;
2021/09/03 02:52:25;;;;;;;;;;;;;;;;;;;;;
2021/09/03 02:54:54;;;;;;;22.40;15.48;;;15.40;92.20;;;;;;4881350;29;20043;-87
2021/09/03 02:57:47;;;;;;;20.42;15.65;;;15.40;92.20;;;;;;4887555;29;20036;-87
2021/09/03 03:03:20;;;;;;;19.33;15.15;;;15.40;92.30;;;;;;4862309;29;20045;-88
2021/09/03 03:08:57;;;;;;;;;;;;;;;;;;;;;
2021/09/03 03:11:35;;;;;;;;;;;;;;;;;;;;;
2021/09/03 03:14:26;;;;;;;20.85;14.98;;;15.30;92.30;;;;;;4898176;29;20377;-88
2021/09/03 03:20:17;;;;;;;;;;;;;;;;;;;;;
2021/09/03 03:23:22;;;;;;;20.48;15.52;;;15.30;92.40;;;;;;4888947;29;20055;-87
2021/09/03 03:26:18;;;;;;;22.48;16.25;;;15.30;92.40;;;;;;4888765;29;20043;-87
2021/09/03 03:29:03;;;;;;;22.58;16.63;;;15.30;92.40;;;;;;4897415;29;20061;-88
2021/09/03 03:34:48;;;;;;;;;;;;;;;;;;;;;
2021/09/03 03:37:20;;;;;;;23.25;16.80;;;15.20;92.50;;;;;;4886976;29;20033;-87
2021/09/03 03:40:19;;;;;;;;;;;;;;;;;;;;;
2021/09/03 03:43:23;;;;;;;21.17;16.02;;;15.10;92.50;;;;;;4892517;29;20059;-88
2021/09/03 03:46:29;;;;;;;;;;;;;;;;;;;;;
2021/09/03 03:49:32;;;;;;;23.42;17.30;;;15.10;92.60;;;;;;4891105;29;20075;-86
2021/09/03 03:52:07;;;;;;;;;;;15.00;92.50;;;;;;4886770;29;20029;-86
2021/09/03 03:54:46;;;;;;;25.63;16.95;;;15.10;92.60;;;;;;4896702;29;20423;-88
2021/09/03 03:57:21;;;;;;;24.02;17.42;;;15.10;92.60;;;;;;4865920;29;20053;-88
2021/09/03 04:01:02;;;;;;;;;;;;;;;;;;;;;
2021/09/03 04:03:24;;;;;;;24.02;17.35;;;15.00;92.60;;;;;;4883983;29;20485;-87
2021/09/03 04:06:06;;;;;;;22.92;17.60;;;15.00;92.70;;;;;;4885554;29;20100;-88
2021/09/03 04:08:49;;;;;;;;;;;;;;;;;;;;;
2021/09/03 04:11:32;;;;;;;;;;;;;;;;;;;;;
2021/09/03 04:14:29;;;;;;;25.17;18.55;;;15.00;92.70;;;;;;4879239;29;20025;-87
2021/09/03 04:17:28;;;;;;;;;;;;;;;;;;;;;
2021/09/03 04:22:55;;;;;;;;;;;14.90;92.80;;;;;;4876535;29;20113;-87
2021/09/03 04:25:28;;;;;;;25.15;19.13;;;14.90;92.80;;;;;;4901440;29;20356;-87
2021/09/03 04:28:29;;;;;;;24.10;18.65;;;14.90;92.90;;;;;;4886824;29;20032;-88
2021/09/03 04:31:11;;;;;;;;;;;;;;;;;;;;;
2021/09/03 04:34:09;;;;;;;;;;;;;;;;;;;;;
2021/09/03 04:39:40;;;;;;;;;;;;;;;;;;;;;
2021/09/03 04:42:32;;;;;;;;;;;;;;;;;;;;;
2021/09/03 04:45:34;;;;;;;27.08;19.25;;;14.70;93.00;;;;;;4910188;29;20049;-87
2021/09/03 04:48:38;;;;;;;;;;;;;;;;;;;;;
2021/09/03 04:55:09;;;;;;;28.55;20.10;;;14.70;93.10;;;;;;4892048;29;20044;-88
2021/09/03 04:58:00;;;;;;;;;;;14.70;93.10;;;;;;4885159;29;20096;-90
2021/09/03 05:00:25;;;;;;;;;;;14.60;93.00;;;;;;4899997;29;19954;-90
2021/09/03 05:03:14;;;;;;;;;;;;;;;;;;;;;
2021/09/03 05:05:57;;;;;;;27.10;19.55;;;14.60;93.10;;;;;;4906101;29;20055;-90
2021/09/03 05:08:50;;;;;;;28.50;19.48;;;14.60;93.10;;;;;;4883770;29;20059;-89
2021/09/03 05:22:09;;;;;;;;;;;;;;;;;;;;;
2021/09/03 05:28:30;;;;;;;;;;;;;;;;;;;;;
2021/09/03 05:36:41;;;;;;;;;;;;;;;;;;;;;
2021/09/03 05:49:28;;;;;;;;;;;;;;;;;;;;;
2021/09/03 05:56:13;;;;;;;;;;;;;;;;;;;;;
2021/09/03 06:02:41;;;;;;;;;;;;;;;;;;;;;
2021/09/03 06:05:44;;;;;;;;;;;;;;;;;;;;;
2021/09/03 06:12:41;;;;;;;;;;;;;;;;;;;;;
2021/09/03 06:19:09;;;;;;;;;;;;;;;;;;;;;
2021/09/03 06:25:51;;;;;;;28.80;20.80;;;14.90;93.60;;;;;;4817866;29;20030;-91
2021/09/03 06:42:52;;;;;;;;;;;;;;;;;;;;;
2021/09/03 06:53:00;;;;;;;32.35;21.33;;;15.20;93.70;;;;;;4797971;29;20046;-90
2021/09/03 06:59:47;;;;;;;23.40;19.02;;;15.30;93.70;;;;;;4809549;29;20046;-90
2021/09/03 07:03:03;;;;;;;;;;;;;;;;;;;;;
2021/09/03 07:06:17;;;;;;;;;;;;;;;;;;;;;
2021/09/03 07:43:45;;;;;;;;;;;;;;;;;;;;;
2021/09/03 07:47:19;;;;;;;;;;;;;;;;;;;;;
2021/09/03 08:33:27;;;;;;;;;;;;;;;;;;;;;
2021/09/03 08:40:37;;;;;;;;;;;;;;;;;;;;;
2021/09/03 08:47:37;;;;;;;;;;;;;;;;;;;;;
2021/09/03 09:38:47;;;;;;;;;;;;;;;;;;;;;
2021/09/03 10:02:02;;;;;;;;;;;;;;;;;;;;;
2021/09/03 10:04:57;;;;;;;;;;;;;;;;;;;;;
2021/09/03 10:11:12;;;;;;;13.45;9.77;;;19.80;86.80;;;;;;6172985;23;20036;-91
2021/09/03 10:14:27;;;;;;;;;;;;;;;;;;;;;
2021/09/03 10:28:27;;;;;;;15.50;11.35;;;20.10;86.10;;;;;;5963420;24;20008;-91
2021/09/03 10:34:55;;;;;;;15.82;10.38;;;20.30;85.50;;;;;;5963362;23;20253;-88
2021/09/03 10:37:41;;;;;;;16.00;11.68;;;20.40;85.20;;;;;;6054650;23;20098;-90
2021/09/03 10:40:41;;;;;;;16.83;12.18;;;20.40;85.80;;;;;;6135940;23;20040;-89
2021/09/03 10:43:50;;;;;;;16.92;11.20;;;20.40;85.00;;;;;;6135612;23;20013;-90
2021/09/03 10:46:19;;;;;;;15.27;10.13;;;20.50;85.10;;;;;;6244686;22;20015;-88
2021/09/03 10:48:57;;;;;;;11.10;8.52;;;20.50;85.00;;;;;;6227082;23;20012;-88
2021/09/03 10:51:57;;;;;;;15.88;10.95;;;20.60;85.30;;;;;;6251840;23;20008;-86
2021/09/03 10:54:34;;;;;;;17.20;13.15;;;20.60;85.10;;;;;;6242280;23;20004;-86
2021/09/03 10:57:20;;;;;;;14.63;10.57;;;20.70;84.40;;;;;;6245927;23;20000;-88
2021/09/03 11:00:19;;;;;;;14.48;10.48;;;20.70;84.40;;;;;;6220560;23;20437;-88
2021/09/03 11:02:58;;;;;;;;;;;;;;;;;;;;;
2021/09/03 11:08:39;;;;;;;14.73;10.70;;;20.90;84.40;;;;;;6195667;23;20058;-87
2021/09/03 11:11:31;;;;;;;13.90;9.45;;;21.00;84.00;;;;;;6149070;23;20014;-90
2021/09/03 11:14:13;;;;;;;12.52;9.77;;;21.00;84.00;;;;;;6190187;23;20055;-89
2021/09/03 11:16:56;;;;;;;14.20;8.93;;;21.10;83.90;;;;;;6190643;23;20376;-89
2021/09/03 11:19:27;;;;;;;12.32;8.88;;;21.10;83.50;;;;;;6166192;23;20019;-88
2021/09/03 11:22:04;;;;;;;14.23;10.48;;;21.10;83.60;;;;;;6191249;23;20008;-88
2021/09/03 11:24:33;;;;;;;15.85;11.38;;;21.20;83.60;;;;;;6191239;23;20040;-89
2021/09/03 11:27:02;;;;;;;17.13;11.20;;;21.20;82.20;;;;;;6191726;23;20024;-89
2021/09/03 11:30:10;;;;;;;14.77;10.88;;;21.30;82.00;;;;;;6192089;23;20434;-88
2021/09/03 11:32:41;;;;;;;15.70;10.05;;;21.20;81.90;;;;;;6190687;23;20013;-87
2021/09/03 11:35:21;;;;;;;13.40;10.18;;;21.30;82.20;;;;;;6190601;23;20011;-89
2021/09/03 11:37:53;;;;;;;14.67;10.13;;;21.40;81.70;;;;;;6191816;23;20051;-89
2021/09/03 11:40:46;;;;;;;11.57;9.48;;;21.40;81.30;;;;;;6165395;23;20234;-89
2021/09/03 11:43:35;;;;;;;16.02;11.05;;;21.50;81.00;;;;;;6184242;23;20012;-88
2021/09/03 11:46:30;;;;;;;11.88;8.88;;;21.50;80.80;;;;;;6165814;23;20615;-89
2021/09/03 11:49:03;;;;;;;12.48;10.35;;;21.60;81.50;;;;;;6167946;23;20009;-88
2021/09/03 11:51:38;;;;;;;13.50;9.48;;;21.60;81.20;;;;;;6165381;23;20009;-88
2021/09/03 11:54:04;;;;;;;14.55;10.18;;;21.60;81.20;;;;;;6188929;23;20007;-88
2021/09/03 11:56:41;;;;;;;14.55;9.85;;;21.70;80.80;;;;;;6188562;23;20001;-88
2021/09/03 11:59:09;;;;;;;13.95;10.38;;;21.70;80.60;;;;;;6165154;23;20139;-89
2021/09/03 12:01:38;;;;;;;14.70;10.45;;;21.70;80.30;;;;;;6202484;23;20020;-87
2021/09/03 12:04:08;;;;;;;15.02;8.88;;;21.70;80.10;;;;;;6242820;23;20062;-88
2021/09/03 12:06:38;;;;;;;;;;;21.80;79.90;;;;;;6238337;23;20007;-86
2021/09/03 12:09:33;;;;;;;14.57;10.32;;;21.80;79.60;;;;;;6242370;23;19900;-85
2021/09/03 12:12:09;;;;;;;11.88;8.57;;;21.90;79.30;;;;;;6218545;23;20091;-87
2021/09/03 12:14:39;;;;;;;11.20;8.55;;;21.90;79.60;;;;;;6219778;23;20043;-88
2021/09/03 12:17:15;;;;;;;10.85;8.15;;;21.90;79.40;;;;;;6243390;23;20008;-87
2021/09/03 12:19:44;;;;;;;9.80;7.35;;;22.00;79.20;;;;;;6243698;23;20000;-87
2021/09/03 12:22:20;;;;;;;10.90;7.95;;;22.00;79.70;;;;;;6242995;23;20015;-88
2021/09/03 12:24:49;;;;;;;9.98;7.55;;;22.00;79.60;;;;;;6217547;23;20004;-86
2021/09/03 12:27:15;;;;;;;12.32;8.23;;;22.00;79.70;;;;;;6242253;23;20000;-86
2021/09/03 12:29:43;;;;;;;12.45;8.98;;;22.10;79.10;;;;;;6242722;23;20082;-86
2021/09/03 12:32:19;;;;;;;12.15;8.70;;;22.10;78.90;;;;;;6243035;23;20023;-85
2021/09/03 12:34:47;;;;;;;9.98;7.50;;;22.20;78.60;;;;;;6219289;23;20050;-86
2021/09/03 12:37:43;;;;;;;10.60;8.00;;;22.20;79.60;;;;;;6217400;23;20028;-88
2021/09/03 12:40:12;;;;;;;13.63;8.90;;;22.20;79.20;;;;;;6222236;23;20771;-86
2021/09/03 12:42:59;;;;;;;11.80;8.50;;;22.20;78.80;;;;;;6243498;23;20008;-87
2021/09/03 12:45:45;;;;;;;13.57;9.60;;;22.30;78.60;;;;;;6242670;23;20069;-87
2021/09/03 12:48:13;;;;;;;13.23;8.23;;;22.40;77.20;;;;;;6244844;22;20006;-86
2021/09/03 12:50:48;;;;;;;9.95;7.90;;;22.30;77.60;;;;;;6244117;23;20114;-88
2021/09/03 12:53:23;;;;;;;11.88;8.48;;;22.40;77.20;;;;;;6218712;23;20000;-84
2021/09/03 12:55:52;;;;;;;11.90;8.07;;;22.40;76.90;;;;;;6244003;23;20000;-85
2021/09/03 12:58:25;;;;;;;10.95;7.25;;;22.40;77.20;;;;;;6243459;23;20000;-86
2021/09/03 13:01:04;;;;;;;;;;;;;;;;;;;;;
2021/09/03 13:03:38;;;;;;;15.35;9.30;;;22.50;77.30;;;;;;6244161;23;20090;-85
2021/09/03 13:06:06;;;;;;;9.40;7.93;;;22.40;76.30;;;;;;6244569;23;19997;-86
2021/09/03 13:08:32;;;;;;;9.70;7.00;;;22.50;76.50;;;;;;6243912;23;20036;-84
2021/09/03 13:10:58;;;;;;;9.57;7.30;;;22.50;76.80;;;;;;6243894;23;20308;-85
2021/09/03 13:13:32;;;;;;;8.73;6.75;;;22.50;76.70;;;;;;6243551;23;20001;-86
2021/09/03 13:16:01;;;;;;;9.52;6.55;;;22.60;77.00;;;;;;6244490;23;20441;-85
2021/09/03 13:18:33;;;;;;;11.23;7.63;;;22.60;77.20;;;;;;6218533;23;20008;-86
2021/09/03 13:21:02;;;;;;;11.25;8.43;;;22.60;77.00;;;;;;6244223;23;20004;-84
2021/09/03 13:23:34;;;;;;;12.23;8.27;;;22.60;76.50;;;;;;6243842;23;20031;-85
2021/09/03 13:26:05;;;;;;;9.55;7.38;;;22.70;75.80;;;;;;6245527;22;20000;-84
2021/09/03 13:28:30;;;;;;;;;;;22.70;76.10;;;;;;6244190;23;20003;-85
2021/09/03 13:30:56;;;;;;;10.52;7.10;;;22.80;75.70;;;;;;6243712;23;19900;-85
2021/09/03 13:33:24;;;;;;;11.70;7.55;;;22.70;75.80;;;;;;6244132;23;20003;-85
2021/09/03 13:35:56;;;;;;;11.23;6.93;;;22.70;75.30;;;;;;6243967;23;20083;-85
2021/09/03 13:38:24;;;;;;;11.30;7.00;;;22.80;75.40;;;;;;6244519;23;20150;-86
2021/09/03 13:40:59;;;;;;;8.13;6.80;;;22.70;75.30;;;;;;6244180;23;19996;-85
2021/09/03 13:43:31;;;;;;;9.38;6.53;;;22.80;75.20;;;;;;6219897;23;20018;-85
2021/09/03 13:46:15;;;;;;;10.52;7.18;;;22.80;75.30;;;;;;6219160;23;20070;-89
2021/09/03 13:48:47;;;;;;;9.98;6.25;;;22.80;75.10;;;;;;6243000;23;20000;-85
2021/09/03 13:51:14;;;;;;;7.07;6.05;;;22.80;74.40;;;;;;6244090;22;20008;-85
2021/09/03 13:53:52;;;;;;;;;;;;;;;;;;;;;
2021/09/03 13:56:28;;;;;;;11.15;6.75;;;22.90;74.70;;;;;;6244886;23;20068;-86
2021/09/03 13:59:17;;;;;;;8.45;6.25;;;22.90;74.70;;;;;;6243923;23;20004;-85
2021/09/03 14:01:52;;;;;;;10.15;6.15;;;22.90;74.30;;;;;;6242106;23;20430;-84
2021/09/03 14:04:18;;;;;;;11.45;7.35;;;22.90;74.60;;;;;;6242451;23;20433;-85
2021/09/03 14:06:44;;;;;;;10.45;6.97;;;22.90;75.40;;;;;;6241938;23;20004;-85
2021/09/03 14:09:09;;;;;;;9.10;6.38;;;22.90;74.40;;;;;;6217351;23;20474;-85
2021/09/03 14:11:43;;;;;;;10.00;5.70;;;22.90;74.60;;;;;;6242229;23;20045;-84
2021/09/03 14:14:17;;;;;;;8.65;6.90;;;23.00;74.80;;;;;;6243303;23;20000;-84
2021/09/03 14:16:56;;;;;;;6.68;5.63;;;22.90;73.60;;;;;;6243104;23;20004;-84
2021/09/03 14:19:24;;;;;;;6.55;4.90;;;23.00;74.50;;;;;;6221030;23;20008;-85
2021/09/03 14:21:52;;;;;;;8.20;5.72;;;23.00;73.90;;;;;;6243116;23;20000;-85
2021/09/03 14:24:21;;;;;;;8.60;5.53;;;23.00;73.60;;;;;;6244727;22;20024;-85
2021/09/03 14:26:47;;;;;;;11.20;6.45;;;22.90;74.20;;;;;;6244157;23;20000;-84
2021/09/03 14:29:21;;;;;;;6.70;5.65;;;23.00;74.40;;;;;;6246832;22;20389;-84
2021/09/03 14:32:00;;;;;;;7.50;5.72;;;23.00;74.20;;;;;;6244918;23;20004;-84
2021/09/03 14:34:37;;;;;;;8.65;6.20;;;23.00;74.60;;;;;;6246975;23;19996;-85
2021/09/03 14:37:06;;;;;;;9.27;6.65;;;23.00;74.80;;;;;;6222763;23;20500;-83
2021/09/03 14:39:41;;;;;;;;;;;;;;;;;;;;;
2021/09/03 14:42:07;;;;;;;8.55;6.18;;;23.00;74.10;;;;;;6247358;23;20465;-82
2021/09/03 14:44:33;;;;;;;11.13;6.60;;;23.10;74.30;;;;;;6245409;23;20039;-82
2021/09/03 14:46:58;;;;;;;10.77;6.93;;;23.00;73.90;;;;;;6245267;23;20078;-82
2021/09/03 14:49:24;;;;;;;9.60;7.20;;;23.10;73.60;;;;;;6220237;23;20304;-83
2021/09/03 14:51:50;;;;;;;8.15;6.20;;;23.10;73.30;;;;;;6245080;23;20515;-84
2021/09/03 14:54:18;;;;;;;8.55;6.03;;;23.10;73.50;;;;;;6245957;23;20087;-84
2021/09/03 14:56:46;;;;;;;7.35;5.97;;;23.10;73.50;;;;;;6245479;23;20322;-83
2021/09/03 14:59:19;;;;;;;11.13;7.35;;;23.10;73.80;;;;;;6244999;23;20406;-84
2021/09/03 15:01:45;;;;;;;8.45;7.28;;;23.10;73.70;;;;;;6219234;23;20028;-84
2021/09/03 15:04:12;;;;;;;11.57;6.70;;;23.10;74.30;;;;;;6247109;23;20000;-83
2021/09/03 15:06:41;;;;;;;8.20;6.55;;;23.10;73.70;;;;;;6245339;23;20011;-84
2021/09/03 15:09:10;;;;;;;10.88;8.43;;;23.10;73.60;;;;;;6245354;23;20049;-85
2021/09/03 15:14:27;;;;;;;10.35;6.63;;;23.20;72.80;;;;;;6223770;23;20460;-86
2021/09/03 15:16:53;;;;;;;9.13;6.68;;;23.10;73.10;;;;;;6245031;23;20042;-85
2021/09/03 15:19:24;;;;;;;8.10;6.03;;;23.10;73.60;;;;;;6244458;23;20414;-85
2021/09/03 15:21:59;;;;;;;;;;;;;;;;;;;;;
2021/09/03 15:24:30;;;;;;;11.52;7.70;;;23.10;73.80;;;;;;6245563;23;20080;-89
2021/09/03 15:27:06;;;;;;;10.25;7.35;;;23.10;73.70;;;;;;6246046;22;20004;-85
2021/09/03 15:29:34;;;;;;;8.82;6.70;;;23.10;73.60;;;;;;6219301;23;20345;-84
2021/09/03 15:32:02;;;;;;;8.55;6.75;;;23.10;73.70;;;;;;6244175;23;20372;-84
2021/09/03 15:34:33;;;;;;;9.45;6.78;;;23.10;73.80;;;;;;6244418;23;20027;-86
2021/09/03 15:37:06;;;;;;;8.00;7.15;;;23.10;73.60;;;;;;6245100;23;20043;-84
2021/09/03 15:39:34;;;;;;;8.32;6.85;;;23.10;73.30;;;;;;6244317;23;20011;-85
2021/09/03 15:42:00;;;;;;;8.00;6.65;;;23.10;73.40;;;;;;6244411;23;20027;-85
2021/09/03 15:47:41;;;;;;;8.98;6.40;;;23.10;73.80;;;;;;6245514;22;20084;-85
2021/09/03 15:59:26;;;;;;;10.15;7.32;;;23.10;74.00;;;;;;6188851;22;20004;-85
2021/09/03 16:02:02;;;;;;;;;;;;;;;;;;;;;
2021/09/03 16:04:55;;;;;;;8.27;6.53;;;23.00;74.30;;;;;;6244466;23;20075;-84
2021/09/03 16:08:20;;;;;;;;;;;;;;;;;;;;;
2021/09/03 16:10:20;;;;;;;9.63;8.10;;;22.80;74.90;;;;;;6218354;23;20012;-85
2021/09/03 16:12:46;;;;;;;10.52;7.75;;;22.80;75.00;;;;;;6242980;23;20008;-86
2021/09/03 16:15:16;;;;;;;10.43;7.28;;;22.80;75.10;;;;;;6243778;23;20058;-84
2021/09/03 16:18:12;;;;;;;;;;;;;;;;;;;;;
2021/09/03 16:21:18;;;;;;;9.27;6.82;;;22.70;75.10;;;;;;6244850;23;19981;-84
2021/09/03 16:24:07;;;;;;;10.25;7.43;;;22.70;75.30;;;;;;6243111;23;20476;-85
2021/09/03 16:26:36;;;;;;;9.73;7.28;;;22.70;75.40;;;;;;6243449;23;20004;-88
2021/09/03 16:29:06;;;;;;;10.05;7.25;;;22.60;75.40;;;;;;6243112;23;19996;-84
2021/09/03 16:31:42;;;;;;;11.50;7.43;;;22.60;75.50;;;;;;6218551;23;20012;-85
2021/09/03 16:34:10;;;;;;;9.25;7.32;;;22.60;75.60;;;;;;6242237;23;20387;-87
2021/09/03 16:36:38;;;;;;;11.30;7.63;;;22.60;75.70;;;;;;6240648;23;20381;-85
2021/09/03 16:39:21;;;;;;;9.57;6.93;;;22.50;76.00;;;;;;6242836;23;20004;-84
2021/09/03 16:41:52;;;;;;;10.13;6.63;;;22.50;76.20;;;;;;6244512;22;20000;-84
2021/09/03 16:44:29;;;;;;;;;;;;;;;;;;;;;
2021/09/03 16:47:10;;;;;;;11.32;7.47;;;22.40;76.80;;;;;;6244125;23;20083;-84
2021/09/03 16:49:44;;;;;;;10.93;8.02;;;22.40;76.80;;;;;;6244385;22;20034;-85
2021/09/03 16:52:36;;;;;;;;;;;;;;;;;;;;;
2021/09/03 16:55:38;;;;;;;8.80;6.47;;;22.40;76.90;;;;;;6243558;23;20075;-87
2021/09/03 17:01:13;;;;;;;9.18;7.07;;;22.30;77.40;;;;;;6230863;22;20083;-85
2021/09/03 17:03:51;;;;;;;10.20;7.35;;;22.30;77.10;;;;;;6242048;23;20023;-86
2021/09/03 17:06:22;;;;;;;8.85;6.80;;;22.20;77.10;;;;;;6244346;22;20059;-85
2021/09/03 17:09:12;;;;;;;10.07;7.93;;;22.20;77.30;;;;;;6217065;23;20005;-85
2021/09/03 17:11:43;;;;;;;10.57;8.10;;;22.20;77.60;;;;;;6241928;23;20019;-87
2021/09/03 17:14:26;;;;;;;11.90;7.47;;;22.10;77.70;;;;;;6242926;23;20004;-85
2021/09/03 17:17:40;;;;;;;12.50;8.75;;;22.10;77.80;;;;;;6242170;23;20008;-85
2021/09/03 17:20:18;;;;;;;11.45;8.05;;;22.10;77.90;;;;;;6223304;23;20015;-86
2021/09/03 17:22:47;;;;;;;13.38;8.90;;;22.00;78.80;;;;;;6243334;22;20061;-86
2021/09/03 17:25:44;;;;;;;13.90;9.65;;;21.90;78.30;;;;;;6242530;23;20086;-85
2021/09/03 17:28:38;;;;;;;15.52;9.38;;;21.90;78.60;;;;;;6242694;23;20011;-85
2021/09/03 17:31:40;;;;;;;;;;;;;;;;;;;;;
2021/09/03 17:34:11;;;;;;;14.85;9.88;;;21.80;78.90;;;;;;6235839;22;20071;-85
2021/09/03 17:37:03;;;;;;;13.65;9.02;;;21.70;79.10;;;;;;6244425;22;20004;-86
2021/09/03 17:39:36;;;;;;;12.15;9.38;;;21.70;79.30;;;;;;6242255;23;20005;-86
2021/09/03 17:42:13;;;;;;;11.45;8.63;;;21.70;79.50;;;;;;6241099;23;20015;-85
2021/09/03 17:44:39;;;;;;;12.43;9.18;;;21.60;79.60;;;;;;6218758;23;20011;-86
2021/09/03 17:47:27;;;;;;;11.07;8.05;;;21.50;79.70;;;;;;6242305;23;20008;-87
2021/09/03 17:49:56;;;;;;;11.95;9.10;;;21.50;79.90;;;;;;6241757;23;20011;-85
2021/09/03 17:52:22;;;;;;;14.00;9.45;;;21.50;80.10;;;;;;6217275;23;20338;-85
2021/09/03 17:54:51;;;;;;;13.77;8.90;;;21.40;80.20;;;;;;6244696;23;20004;-84
2021/09/03 17:57:17;;;;;;;15.52;9.25;;;21.40;80.30;;;;;;6242829;23;20083;-85
2021/09/03 17:59:43;;;;;;;15.57;8.55;;;21.30;80.50;;;;;;6242594;23;20118;-86
2021/09/03 18:02:13;;;;;;;13.20;8.85;;;21.30;80.70;;;;;;6217049;23;20020;-85
2021/09/03 18:04:44;;;;;;;15.65;9.23;;;21.20;80.70;;;;;;6245017;23;20004;-85
2021/09/03 18:07:12;;;;;;;;;;;21.20;81.00;;;;;;6245228;23;20003;-84
2021/09/03 18:09:45;;;;;;;11.82;8.45;;;21.20;81.00;;;;;;6219437;23;20229;-85
2021/09/03 18:12:18;;;;;;;13.15;8.88;;;21.10;81.20;;;;;;6244823;23;20426;-85
2021/09/03 18:14:43;;;;;;;11.95;8.93;;;21.00;81.40;;;;;;6244899;23;20000;-85
2021/09/03 18:17:09;;;;;;;12.02;8.38;;;21.00;81.60;;;;;;6244471;23;20058;-86
2021/09/03 18:19:43;;;;;;;10.57;8.13;;;20.90;81.60;;;;;;6246413;22;20057;-84
2021/09/03 18:22:09;;;;;;;11.88;7.85;;;20.90;81.80;;;;;;6220748;23;20085;-84
2021/09/03 18:24:35;;;;;;;17.65;9.23;;;20.90;81.90;;;;;;6243815;23;20436;-84
2021/09/03 18:27:06;;;;;;;15.02;8.63;;;20.80;81.90;;;;;;6243859;23;20078;-85
2021/09/03 18:29:32;;;;;;;14.07;8.40;;;20.70;82.00;;;;;;6243896;23;20085;-87
2021/09/03 18:31:57;;;;;;;13.15;8.05;;;20.70;82.20;;;;;;6243436;23;20009;-85
2021/09/03 18:35:08;;;;;;;16.88;8.90;;;20.70;82.30;;;;;;6245807;23;20008;-91
2021/09/03 18:38:30;;;;;;;;;;;;;;;;;;;;;
2021/09/03 18:52:28;;;;;;;13.43;8.60;;;20.30;83.60;;;;;;6158249;23;20036;-91
2021/09/03 18:55:34;;;;;;;;;;;;;;;;;;;;;
2021/09/03 19:02:37;;;;;;;;;;;;;;;;;;;;;
2021/09/03 19:05:31;;;;;;;14.02;9.23;;;20.00;84.50;;;;;;6177453;23;20521;-92
2021/09/03 19:22:24;;;;;;;;;;;;;;;;;;;;;
2021/09/03 19:25:33;;;;;;;;;;;;;;;;;;;;;
2021/09/03 19:28:52;;;;;;;;;;;;;;;;;;;;;
2021/09/03 19:31:54;;;;;;;;;;;;;;;;;;;;;
2021/09/03 19:37:50;;;;;;;;;;;;;;;;;;;;;
2021/09/03 19:40:57;;;;;;;16.10;9.60;;;19.30;85.80;;;;;;6251239;23;20091;-91
2021/09/03 19:44:19;;;;;;;;;;;;;;;;;;;;;
2021/09/03 19:47:28;;;;;;;15.52;10.18;;;19.20;86.00;;;;;;6135410;23;20076;-91
2021/09/03 19:50:34;;;;;;;;;;;;;;;;;;;;;
2021/09/03 19:56:44;;;;;;;15.15;9.55;;;19.10;86.40;;;;;;6221700;23;20032;-91
2021/09/03 20:03:25;;;;;;;15.88;10.20;;;19.10;86.40;;;;;;6192141;22;20012;-90
2021/09/03 20:09:53;;;;;;;;;;;;;;;;;;;;;
2021/09/03 20:13:21;;;;;;;15.20;10.30;;;18.90;86.50;;;;;;6245870;22;20075;-93
2021/09/03 20:16:24;;;;;;;;;;;;;;;;;;;;;
2021/09/03 20:19:44;;;;;;;;;;;;;;;;;;;;;
2021/09/03 20:26:15;;;;;;;;;;;;;;;;;;;;;
2021/09/03 20:29:15;;;;;;;;;;;;;;;;;;;;;
2021/09/03 20:32:32;;;;;;;;;;;;;;;;;;;;;
2021/09/03 20:38:01;;;;;;;16.75;11.40;;;18.50;87.30;;;;;;6228152;23;20004;-92
2021/09/03 20:40:49;;;;;;;17.77;11.23;;;18.50;87.40;;;;;;6221585;23;20015;-91
2021/09/03 20:50:03;;;;;;;17.45;12.25;;;18.40;87.20;;;;;;6220532;23;20008;-90
2021/09/03 20:53:01;;;;;;;15.98;11.38;;;18.40;87.30;;;;;;6242040;23;20024;-89
2021/09/03 20:55:58;;;;;;;16.58;12.43;;;18.40;87.40;;;;;;6223267;23;20031;-89
2021/09/03 20:58:34;;;;;;;21.60;12.43;;;18.30;87.40;;;;;;6223370;23;20012;-88
2021/09/03 21:01:23;;;;;;;17.40;12.32;;;18.30;87.50;;;;;;6219332;23;20004;-87
2021/09/03 21:04:01;;;;;;;;;;;;;;;;;;;;;
2021/09/03 21:06:57;;;;;;;;;;;;;;;;;;;;;
2021/09/03 21:10:22;;;;;;;;;;;;;;;;;;;;;
2021/09/03 21:13:09;;;;;;;17.63;12.70;;;18.00;87.90;;;;;;6236645;23;20290;-89
2021/09/03 21:16:01;;;;;;;17.13;12.77;;;17.90;88.20;;;;;;6246071;22;20092;-88
2021/09/03 21:18:38;;;;;;;18.10;12.60;;;17.90;88.30;;;;;;6222595;23;20069;-88
2021/09/03 21:21:24;;;;;;;;;;;;;;;;;;;;;
2021/09/03 21:24:16;;;;;;;17.38;13.35;;;17.90;88.40;;;;;;6245357;23;20087;-89
2021/09/03 21:26:56;;;;;;;18.33;12.88;;;17.80;88.50;;;;;;6244749;23;20004;-88
2021/09/03 21:29:53;;;;;;;;;;;;;;;;;;;;;
2021/09/03 21:38:16;;;;;;;;;;;;;;;;;;;;;
2021/09/03 21:41:26;;;;;;;;;;;;;;;;;;;;;
2021/09/03 21:44:40;;;;;;;19.33;14.90;;;17.50;89.60;;;;;;6242745;23;20092;-89